createdAt,value
2018-06-13T00:01:03.265Z,24.00
2018-06-13T00:03:32.962Z,24.00
2018-06-13T00:06:02.720Z,24.00
2018-06-13T00:08:32.467Z,24.00
2018-06-13T00:11:02.232Z,24.00
2018-06-13T00:13:31.952Z,24.00
2018-06-13T00:16:01.724Z,24.00
2018-06-13T00:18:31.563Z,24.00
2018-06-13T00:21:01.233Z,24.00
2018-06-13T00:23:31.150Z,24.00
2018-06-13T00:26:00.862Z,24.00
2018-06-13T00:28:30.649Z,24.00
2018-06-13T00:31:00.377Z,24.00
2018-06-13T00:33:30.152Z,24.00
2018-06-13T00:35:59.880Z,24.00
2018-06-13T00:38:29.694Z,24.00
2018-06-13T00:40:59.418Z,24.00
2018-06-13T00:43:29.210Z,24.00
2018-06-13T00:45:58.932Z,24.00
2018-06-13T00:48:28.748Z,24.00
2018-06-13T00:50:58.424Z,24.00
2018-06-13T00:53:28.209Z,24.00
2018-06-13T00:56:08.735Z,24.00
2018-06-13T00:58:38.548Z,24.00
2018-06-13T01:01:08.267Z,24.00
2018-06-13T01:03:38.052Z,24.00
2018-06-13T01:06:07.785Z,24.00
2018-06-13T01:08:37.590Z,24.00
2018-06-13T01:11:07.324Z,24.00
2018-06-13T01:13:37.124Z,24.00
2018-06-13T01:16:06.832Z,24.00
2018-06-13T01:18:36.591Z,24.00
2018-06-13T01:21:06.281Z,24.00
2018-06-13T01:23:36.086Z,24.00
2018-06-13T01:26:05.813Z,24.00
2018-06-13T01:28:35.532Z,24.00
2018-06-13T01:31:05.375Z,24.00
2018-06-13T01:33:35.097Z,24.00
2018-06-13T01:36:04.893Z,24.00
2018-06-13T01:38:34.528Z,24.00
2018-06-13T01:41:04.289Z,24.00
2018-06-13T01:43:33.985Z,24.00
2018-06-13T01:46:03.707Z,24.00
2018-06-13T01:48:33.411Z,24.00
2018-06-13T01:51:03.117Z,24.00
2018-06-13T01:53:32.911Z,24.00
2018-06-13T01:56:03.058Z,24.00
2018-06-13T01:58:32.875Z,24.00
2018-06-13T02:01:02.580Z,24.00
2018-06-13T02:03:32.331Z,24.00
2018-06-13T02:06:02.037Z,24.00
2018-06-13T02:08:31.890Z,24.00
2018-06-13T02:11:01.650Z,24.00
2018-06-13T02:13:31.486Z,24.00
2018-06-13T02:16:01.207Z,24.00
2018-06-13T02:18:30.943Z,24.00
2018-06-13T02:21:00.648Z,24.00
2018-06-13T02:23:30.665Z,23.90
2018-06-13T02:26:00.412Z,23.90
2018-06-13T02:28:30.159Z,24.00
2018-06-13T02:30:59.818Z,23.90
2018-06-13T02:33:29.590Z,23.90
2018-06-13T02:35:59.292Z,23.90
2018-06-13T02:38:29.562Z,23.90
2018-06-13T02:40:59.289Z,24.00
2018-06-13T02:43:29.092Z,23.90
2018-06-13T02:45:58.877Z,24.00
2018-06-13T02:48:28.645Z,23.90
2018-06-13T02:50:58.331Z,24.00
2018-06-13T02:53:28.146Z,23.90
2018-06-13T02:55:57.896Z,23.90
2018-06-13T02:58:27.677Z,23.90
2018-06-13T03:00:57.388Z,23.90
2018-06-13T03:03:27.204Z,23.90
2018-06-13T03:05:57.010Z,23.90
2018-06-13T03:08:26.869Z,23.90
2018-06-13T03:10:56.622Z,23.90
2018-06-13T03:13:26.427Z,24.00
2018-06-13T03:15:56.157Z,23.90
2018-06-13T03:18:25.961Z,24.00
2018-06-13T03:20:55.753Z,23.90
2018-06-13T03:23:25.413Z,23.90
2018-06-13T03:25:55.024Z,23.90
2018-06-13T03:28:24.711Z,23.90
2018-06-13T03:31:00.855Z,23.90
2018-06-13T03:33:30.586Z,23.90
2018-06-13T03:36:00.261Z,23.90
2018-06-13T03:38:30.187Z,24.00
2018-06-13T03:40:59.889Z,24.00
2018-06-13T03:43:29.687Z,23.90
2018-06-13T03:45:59.414Z,23.90
2018-06-13T03:48:29.202Z,23.90
2018-06-13T03:50:58.843Z,24.00
2018-06-13T03:53:28.556Z,23.90
2018-06-13T03:55:58.300Z,24.00
2018-06-13T03:58:28.044Z,24.00
2018-06-13T04:00:57.736Z,23.90
2018-06-13T04:03:27.440Z,23.90
2018-06-13T04:05:57.162Z,23.90
2018-06-13T04:08:26.912Z,24.00
2018-06-13T04:10:56.677Z,24.00
2018-06-13T04:13:26.447Z,24.00
2018-06-13T04:15:56.366Z,23.90
2018-06-13T04:18:26.090Z,24.00
2018-06-13T04:20:55.815Z,24.00
2018-06-13T04:23:25.541Z,24.00
2018-06-13T04:25:55.248Z,24.00
2018-06-13T04:28:25.212Z,24.00
2018-06-13T04:30:54.245Z,24.00
2018-06-13T04:33:23.347Z,23.90
2018-06-13T04:35:52.526Z,23.80
2018-06-13T04:38:21.894Z,23.80
2018-06-13T04:40:51.037Z,23.70
2018-06-13T04:43:19.928Z,23.70
2018-06-13T04:45:48.755Z,23.70
2018-06-13T04:48:17.587Z,23.70
2018-06-13T04:50:46.603Z,23.60
2018-06-13T04:53:15.652Z,23.60
2018-06-13T04:55:44.778Z,23.60
2018-06-13T04:58:13.838Z,23.60
2018-06-13T05:00:42.910Z,23.70
2018-06-13T05:03:11.978Z,23.70
2018-06-13T05:05:41.053Z,23.70
2018-06-13T05:08:10.164Z,23.80
2018-06-13T05:10:39.354Z,23.80
2018-06-13T05:13:08.594Z,23.90
2018-06-13T05:15:37.695Z,23.90
2018-06-13T05:18:06.698Z,23.90
2018-06-13T05:20:35.890Z,23.90
2018-06-13T05:23:04.875Z,23.90
2018-06-13T05:25:34.071Z,23.90
2018-06-13T05:28:03.276Z,23.90
2018-06-13T05:30:32.394Z,23.90
2018-06-13T05:33:01.506Z,24.00
2018-06-13T05:35:30.651Z,24.00
2018-06-13T05:37:59.706Z,24.00
2018-06-13T05:40:28.859Z,24.00
2018-06-13T05:42:57.991Z,24.00
2018-06-13T05:45:27.148Z,24.00
2018-06-13T05:47:56.185Z,24.00
2018-06-13T05:50:25.327Z,24.00
2018-06-13T05:52:54.487Z,24.00
2018-06-13T05:55:23.610Z,24.00
2018-06-13T05:57:52.683Z,24.00
2018-06-13T06:00:21.902Z,24.00
2018-06-13T06:02:51.148Z,24.00
2018-06-13T06:05:20.407Z,24.10
2018-06-13T06:07:49.756Z,24.00
2018-06-13T06:10:18.889Z,24.10
2018-06-13T06:12:48.140Z,24.10
2018-06-13T06:15:17.338Z,24.10
2018-06-13T06:17:46.544Z,24.10
2018-06-13T06:20:15.888Z,24.10
2018-06-13T06:22:45.099Z,24.10
2018-06-13T06:25:14.321Z,24.10
2018-06-13T06:27:43.632Z,24.10
2018-06-13T06:30:12.836Z,24.10
2018-06-13T06:32:42.115Z,24.10
2018-06-13T06:35:11.233Z,24.10
2018-06-13T06:37:40.416Z,24.10
2018-06-13T06:40:09.574Z,24.10
2018-06-13T06:42:38.703Z,24.10
2018-06-13T06:45:08.017Z,24.10
2018-06-13T06:47:37.178Z,24.10
2018-06-13T06:50:06.100Z,24.10
2018-06-13T06:52:35.194Z,24.10
2018-06-13T06:57:34.405Z,24.10
2018-06-13T07:00:03.509Z,24.10
2018-06-13T07:05:01.556Z,24.20
2018-06-13T07:07:30.952Z,24.20
2018-06-13T07:10:00.244Z,24.10
2018-06-13T07:12:29.457Z,24.20
2018-06-13T07:14:58.647Z,24.20
2018-06-13T07:17:27.851Z,24.20
2018-06-13T07:19:57.127Z,24.20
2018-06-13T07:22:26.284Z,24.20
2018-06-13T07:24:55.545Z,24.20
2018-06-13T07:27:24.779Z,24.20
2018-06-13T07:29:54.146Z,24.20
2018-06-13T07:32:23.337Z,24.20
2018-06-13T07:34:52.422Z,24.20
2018-06-13T07:37:21.457Z,24.20
2018-06-13T07:39:50.567Z,24.20
2018-06-13T07:42:19.687Z,24.20
2018-06-13T07:44:48.824Z,24.20
2018-06-13T07:47:17.900Z,24.20
2018-06-13T07:49:47.224Z,24.20
2018-06-13T07:52:16.268Z,24.20
2018-06-13T07:54:45.517Z,24.20
2018-06-13T07:57:14.668Z,24.20
2018-06-13T07:59:43.661Z,24.20
2018-06-13T08:02:12.734Z,24.20
2018-06-13T08:04:41.893Z,24.20
2018-06-13T08:07:10.742Z,24.20
2018-06-13T08:09:39.835Z,24.20
2018-06-13T08:12:08.631Z,24.20
2018-06-13T08:14:37.459Z,24.20
2018-06-13T08:17:06.610Z,24.20
2018-06-13T08:19:35.743Z,24.20
2018-06-13T08:22:06.080Z,24.20
2018-06-13T08:24:47.421Z,24.10
2018-06-13T08:29:45.297Z,24.10
2018-06-13T08:32:14.386Z,24.10
2018-06-13T08:34:43.203Z,24.10
2018-06-13T08:37:12.072Z,24.10
2018-06-13T08:39:40.910Z,24.20
2018-06-13T08:42:09.996Z,24.20
2018-06-13T08:44:39.093Z,24.20
2018-06-13T08:47:08.151Z,24.20
2018-06-13T08:49:37.235Z,24.20
2018-06-13T08:52:06.166Z,24.20
2018-06-13T08:54:35.217Z,24.30
2018-06-13T08:57:04.420Z,24.30
2018-06-13T08:59:33.812Z,24.30
2018-06-13T09:02:02.962Z,24.30
2018-06-13T09:04:32.006Z,24.30
2018-06-13T09:07:01.131Z,24.30
2018-06-13T09:09:30.243Z,24.30
2018-06-13T09:11:59.328Z,24.30
2018-06-13T09:14:28.385Z,24.30
2018-06-13T09:16:57.514Z,24.20
2018-06-13T09:19:26.470Z,24.20
2018-06-13T09:21:55.319Z,24.30
2018-06-13T09:24:24.138Z,24.30
2018-06-13T09:26:52.972Z,24.30
2018-06-13T09:29:21.771Z,24.30
2018-06-13T09:31:50.599Z,24.30
2018-06-13T09:34:19.838Z,24.40
2018-06-13T09:36:48.959Z,24.40
2018-06-13T09:39:18.106Z,24.40
2018-06-13T09:41:52.264Z,24.40
2018-06-13T09:44:21.320Z,24.40
2018-06-13T09:46:50.447Z,24.40
2018-06-13T09:49:19.512Z,24.40
2018-06-13T09:51:48.649Z,24.40
2018-06-13T09:54:17.806Z,24.40
2018-06-13T09:56:47.029Z,24.40
2018-06-13T09:59:21.471Z,24.40
2018-06-13T10:01:55.852Z,24.40
2018-06-13T10:04:24.927Z,24.40
2018-06-13T10:06:54.023Z,24.40
2018-06-13T10:09:23.067Z,24.40
2018-06-13T10:11:52.339Z,24.40
2018-06-13T10:14:21.406Z,24.40
2018-06-13T10:16:50.518Z,24.40
2018-06-13T10:19:19.405Z,24.40
2018-06-13T10:21:48.496Z,24.40
2018-06-13T10:24:17.585Z,24.40
2018-06-13T10:26:46.695Z,24.50
2018-06-13T10:29:15.826Z,24.40
2018-06-13T10:31:44.984Z,24.40
2018-06-13T10:34:14.078Z,24.40
2018-06-13T10:36:43.173Z,24.40
2018-06-13T10:39:12.279Z,24.40
2018-06-13T10:41:41.370Z,24.50
2018-06-13T10:44:10.456Z,24.50
2018-06-13T10:46:39.554Z,24.40
2018-06-13T10:49:08.549Z,24.40
2018-06-13T10:51:37.636Z,24.40
2018-06-13T10:54:06.739Z,24.50
2018-06-13T10:56:35.942Z,24.50
2018-06-13T10:59:05.135Z,24.50
2018-06-13T11:01:34.123Z,24.40
2018-06-13T11:04:03.219Z,24.50
2018-06-13T11:06:32.417Z,24.40
2018-06-13T11:09:01.543Z,24.40
2018-06-13T11:11:30.607Z,24.40
2018-06-13T11:13:59.474Z,24.40
2018-06-13T11:16:28.535Z,24.50
2018-06-13T11:18:57.640Z,24.40
2018-06-13T11:21:26.683Z,24.50
2018-06-13T11:23:55.798Z,24.40
2018-06-13T11:26:24.870Z,24.40
2018-06-13T11:28:53.912Z,24.50
2018-06-13T11:31:22.979Z,24.50
2018-06-13T11:33:52.010Z,24.50
2018-06-13T11:36:20.887Z,24.50
2018-06-13T11:38:49.859Z,24.50
2018-06-13T11:41:19.305Z,24.50
2018-06-13T11:43:48.461Z,24.50
2018-06-13T11:46:17.524Z,24.50
2018-06-13T11:48:46.593Z,24.50
2018-06-13T11:53:44.626Z,24.50
2018-06-13T11:56:13.458Z,24.40
2018-06-13T11:58:42.492Z,24.40
2018-06-13T12:01:11.672Z,24.40
2018-06-13T12:03:40.775Z,24.40
2018-06-13T12:06:10.030Z,24.40
2018-06-13T12:08:39.115Z,24.40
2018-06-13T12:11:08.095Z,24.40
2018-06-13T12:13:37.266Z,24.40
2018-06-13T12:16:06.069Z,24.40
2018-06-13T12:18:34.904Z,24.50
2018-06-13T12:21:03.838Z,24.40
2018-06-13T12:23:32.920Z,24.50
2018-06-13T12:26:02.128Z,24.50
2018-06-13T12:28:31.394Z,24.50
2018-06-13T12:31:00.565Z,24.50
2018-06-13T12:33:29.623Z,24.50
2018-06-13T12:35:58.703Z,24.50
2018-06-13T12:38:27.848Z,24.50
2018-06-13T12:40:56.896Z,24.50
2018-06-13T12:43:25.993Z,24.50
2018-06-13T12:45:55.084Z,24.50
2018-06-13T12:48:24.184Z,24.50
2018-06-13T12:50:53.388Z,24.50
2018-06-13T12:53:22.480Z,24.50
2018-06-13T12:55:51.719Z,24.50
2018-06-13T12:58:20.791Z,24.50
2018-06-13T13:00:49.907Z,24.50
2018-06-13T13:03:18.953Z,24.50
2018-06-13T13:05:48.051Z,24.50
2018-06-13T13:08:17.170Z,24.50
2018-06-13T13:10:45.987Z,24.50
2018-06-13T13:13:14.998Z,24.50
2018-06-13T13:15:43.839Z,24.50
2018-06-13T13:18:12.923Z,24.50
2018-06-13T13:20:41.753Z,24.50
2018-06-13T13:23:10.705Z,24.50
2018-06-13T13:25:39.523Z,24.50
2018-06-13T13:28:08.527Z,24.50
2018-06-13T13:30:37.773Z,24.60
2018-06-13T13:33:06.887Z,24.50
2018-06-13T13:35:35.953Z,24.50
2018-06-13T13:38:05.257Z,24.60
2018-06-13T13:40:34.509Z,24.50
2018-06-13T13:43:03.560Z,24.50
2018-06-13T13:45:32.499Z,24.50
2018-06-13T13:48:01.690Z,24.50
2018-06-13T13:50:30.747Z,24.50
2018-06-13T13:52:59.547Z,24.50
2018-06-13T13:55:28.530Z,24.50
2018-06-13T13:57:57.677Z,24.60
2018-06-13T14:00:33.207Z,24.50
2018-06-13T14:03:02.036Z,24.60
2018-06-13T14:05:31.158Z,24.60
2018-06-13T14:08:00.356Z,24.50
2018-06-13T14:10:29.440Z,24.60
2018-06-13T14:12:58.639Z,24.50
2018-06-13T14:15:27.627Z,24.60
2018-06-13T14:17:56.732Z,24.50
2018-06-13T14:20:25.735Z,24.50
2018-06-13T14:22:54.820Z,24.50
2018-06-13T14:25:23.851Z,24.60
2018-06-13T14:27:52.673Z,24.60
2018-06-13T14:30:21.505Z,24.60
2018-06-13T14:32:50.687Z,24.60
2018-06-13T14:35:19.786Z,24.60
2018-06-13T14:37:48.870Z,24.50
2018-06-13T14:40:17.978Z,24.50
2018-06-13T14:42:47.058Z,24.50
2018-06-13T14:45:16.200Z,24.60
2018-06-13T14:47:45.299Z,24.60
2018-06-13T14:50:14.363Z,24.50
2018-06-13T14:52:43.199Z,24.50
2018-06-13T14:55:12.016Z,24.50
2018-06-13T14:57:40.926Z,24.60
2018-06-13T15:00:10.005Z,24.60
2018-06-13T15:02:39.079Z,24.60
2018-06-13T15:05:08.028Z,24.60
2018-06-13T15:07:37.129Z,24.60
2018-06-13T15:10:06.188Z,24.60
2018-06-13T15:12:35.328Z,24.60
2018-06-13T15:15:04.489Z,24.60
2018-06-13T15:17:33.626Z,24.50
2018-06-13T15:20:02.682Z,24.50
2018-06-13T15:22:31.526Z,24.50
2018-06-13T15:25:00.371Z,24.50
2018-06-13T15:27:29.191Z,24.50
2018-06-13T15:32:26.547Z,24.50
2018-06-13T15:34:55.499Z,24.50
2018-06-13T15:37:24.530Z,24.50
2018-06-13T15:39:53.430Z,24.40
2018-06-13T15:42:22.629Z,24.40
2018-06-13T15:44:51.765Z,24.30
2018-06-13T15:47:20.974Z,24.30
2018-06-13T15:49:50.119Z,24.30
2018-06-13T15:52:19.150Z,24.20
2018-06-13T15:54:48.258Z,24.20
2018-06-13T15:57:17.313Z,24.20
2018-06-13T15:59:46.338Z,24.20
2018-06-13T16:02:15.339Z,24.30
2018-06-13T16:04:44.646Z,24.30
2018-06-13T16:07:13.747Z,24.30
2018-06-13T16:09:42.858Z,24.30
2018-06-13T16:12:11.971Z,24.40
2018-06-13T16:14:41.014Z,24.40
2018-06-13T16:17:10.109Z,24.40
2018-06-13T16:19:39.254Z,24.40
2018-06-13T16:22:08.312Z,24.40
2018-06-13T16:24:37.398Z,24.40
2018-06-13T16:27:06.492Z,24.40
2018-06-13T16:29:35.578Z,24.40
2018-06-13T16:32:04.692Z,24.40
2018-06-13T16:34:33.827Z,24.40
2018-06-13T16:37:02.875Z,24.30
2018-06-13T16:39:32.071Z,24.30
2018-06-13T16:42:01.162Z,24.30
2018-06-13T16:44:30.410Z,24.20
2018-06-13T16:46:59.447Z,24.20
2018-06-13T16:49:28.799Z,24.20
2018-06-13T16:51:58.730Z,24.20
2018-06-13T16:54:38.938Z,24.20
2018-06-13T16:57:07.959Z,24.30
2018-06-13T16:59:37.155Z,24.30
2018-06-13T17:02:06.219Z,24.20
2018-06-13T17:04:35.451Z,24.20
2018-06-13T17:07:04.475Z,24.10
2018-06-13T17:09:33.632Z,24.10
2018-06-13T17:12:02.824Z,24.00
2018-06-13T17:14:31.946Z,23.90
2018-06-13T17:17:01.144Z,23.90
2018-06-13T17:19:30.342Z,23.90
2018-06-13T17:21:59.394Z,23.90
2018-06-13T17:24:28.518Z,24.00
2018-06-13T17:26:57.581Z,24.00
2018-06-13T17:29:26.715Z,24.10
2018-06-13T17:31:55.815Z,24.10
2018-06-13T17:34:24.893Z,24.10
2018-06-13T17:36:53.971Z,24.20
2018-06-13T17:39:23.214Z,24.20
2018-06-13T17:41:52.299Z,24.20
2018-06-13T17:44:21.334Z,24.20
2018-06-13T17:46:50.178Z,24.30
2018-06-13T17:49:19.274Z,24.30
2018-06-13T17:51:48.335Z,24.30
2018-06-13T17:54:17.424Z,24.30
2018-06-13T17:56:46.566Z,24.40
2018-06-13T18:01:44.191Z,24.40
2018-06-13T18:04:13.288Z,24.40
2018-06-13T18:06:42.426Z,24.40
2018-06-13T18:09:11.622Z,24.40
2018-06-13T18:11:40.875Z,24.40
2018-06-13T18:14:10.086Z,24.40
2018-06-13T18:16:39.209Z,24.40
2018-06-13T18:19:08.269Z,24.40
2018-06-13T18:21:37.382Z,24.40
2018-06-13T18:24:06.508Z,24.40
2018-06-13T18:26:35.470Z,24.40
2018-06-13T18:29:04.757Z,24.40
2018-06-13T18:31:33.878Z,24.40
2018-06-13T18:34:03.151Z,24.40
2018-06-13T18:36:32.397Z,24.40
2018-06-13T18:39:01.440Z,24.40
2018-06-13T18:41:30.679Z,24.40
2018-06-13T18:43:59.773Z,24.40
2018-06-13T18:46:28.856Z,24.40
2018-06-13T18:48:57.864Z,24.40
2018-06-13T18:51:26.939Z,24.40
2018-06-13T18:53:55.999Z,24.40
2018-06-13T18:56:25.147Z,24.40
2018-06-13T18:58:54.295Z,24.40
2018-06-13T19:01:23.646Z,24.30
2018-06-13T19:03:52.844Z,24.30
2018-06-13T19:06:21.918Z,24.30
2018-06-13T19:08:50.990Z,24.30
2018-06-13T19:11:20.018Z,24.30
2018-06-13T19:13:48.978Z,24.20
2018-06-13T19:16:18.043Z,24.20
2018-06-13T19:18:47.154Z,24.10
2018-06-13T19:21:16.307Z,24.00
2018-06-13T19:23:45.462Z,24.10
2018-06-13T19:26:14.574Z,24.10
2018-06-13T19:28:43.648Z,24.10
2018-06-13T19:31:12.772Z,24.10
2018-06-13T19:33:41.678Z,24.10
2018-06-13T19:36:10.869Z,24.20
2018-06-13T19:38:40.174Z,24.10
2018-06-13T19:41:09.250Z,24.20
2018-06-13T19:43:40.135Z,24.20
2018-06-13T19:46:09.642Z,24.20
2018-06-13T19:48:44.730Z,24.20
2018-06-13T19:51:13.904Z,24.20
2018-06-13T19:53:47.993Z,24.20
2018-06-13T19:56:19.365Z,24.20
2018-06-13T19:58:48.502Z,24.20
2018-06-13T20:01:17.799Z,24.20
2018-06-13T20:03:51.851Z,24.20
2018-06-13T20:06:20.953Z,24.30
2018-06-13T20:08:50.051Z,24.20
2018-06-13T20:11:19.362Z,24.20
2018-06-13T20:13:53.617Z,24.20
2018-06-13T20:16:39.140Z,24.20
2018-06-13T20:19:13.310Z,24.20
2018-06-13T20:21:42.407Z,24.20
2018-06-13T20:24:11.299Z,24.20
2018-06-13T20:27:44.193Z,24.20
2018-06-13T20:30:18.394Z,24.20
2018-06-13T20:32:47.391Z,24.20
2018-06-13T20:35:16.443Z,24.20
2018-06-13T20:37:45.646Z,24.20
2018-06-13T20:40:14.745Z,24.20
2018-06-13T20:42:43.572Z,24.20
2018-06-13T20:45:12.411Z,24.20
2018-06-13T20:47:41.234Z,24.20
2018-06-13T20:50:10.048Z,24.20
2018-06-13T20:52:38.898Z,24.20
2018-06-13T20:55:07.723Z,24.20
2018-06-13T20:57:36.570Z,24.20
2018-06-13T21:00:05.588Z,24.20
2018-06-13T21:02:35.349Z,24.20
2018-06-13T21:05:05.042Z,24.20
2018-06-13T21:07:34.866Z,24.20
2018-06-13T21:10:04.589Z,24.20
2018-06-13T21:12:34.339Z,24.20
2018-06-13T21:15:04.037Z,24.20
2018-06-13T21:17:34.533Z,24.20
2018-06-13T21:20:04.269Z,24.20
2018-06-13T21:22:34.007Z,24.20
2018-06-13T21:25:03.801Z,24.20
2018-06-13T21:27:33.600Z,24.20
2018-06-13T21:30:03.352Z,24.20
2018-06-13T21:32:33.447Z,24.20
2018-06-13T21:35:03.287Z,24.20
2018-06-13T21:37:33.036Z,24.20
2018-06-13T21:40:02.705Z,24.20
2018-06-13T21:42:32.472Z,24.20
2018-06-13T21:45:02.219Z,24.20
2018-06-13T21:47:31.957Z,24.20
2018-06-13T21:50:01.660Z,24.20
2018-06-13T21:52:31.416Z,24.20
2018-06-13T21:55:01.150Z,24.20
2018-06-13T21:57:30.946Z,24.10
2018-06-13T22:00:00.880Z,24.20
2018-06-13T22:02:30.982Z,24.20
2018-06-13T22:05:01.083Z,24.20
2018-06-13T22:07:31.194Z,24.20
2018-06-13T22:10:01.484Z,24.20
2018-06-13T22:12:31.475Z,24.20
2018-06-13T22:15:01.194Z,24.20
2018-06-13T22:17:30.901Z,24.20
2018-06-13T22:20:00.799Z,24.20
2018-06-13T22:22:30.827Z,24.10
2018-06-13T22:25:00.872Z,24.10
2018-06-13T22:27:30.943Z,24.20
2018-06-13T22:30:01.100Z,24.20
2018-06-13T22:32:31.189Z,24.20
2018-06-13T22:35:01.437Z,24.20
2018-06-13T22:37:31.582Z,24.20
2018-06-13T22:40:01.786Z,24.20
2018-06-13T22:42:32.079Z,24.20
2018-06-13T22:45:02.593Z,24.20
2018-06-13T22:47:32.528Z,24.20
2018-06-13T22:50:02.727Z,24.20
2018-06-13T22:52:32.806Z,24.20
2018-06-13T22:55:02.981Z,24.20
2018-06-13T22:57:32.873Z,24.20
2018-06-13T23:00:02.873Z,24.20
2018-06-13T23:02:36.429Z,24.20
2018-06-13T23:05:06.504Z,24.20
2018-06-13T23:07:36.658Z,24.20
2018-06-13T23:10:09.074Z,24.20
2018-06-13T23:12:39.696Z,24.20
2018-06-13T23:15:09.864Z,24.20
2018-06-13T23:17:39.867Z,24.20
2018-06-13T23:20:10.183Z,24.20
2018-06-13T23:22:40.146Z,24.20
2018-06-13T23:25:10.135Z,24.20
2018-06-13T23:27:40.316Z,24.20
2018-06-13T23:30:10.251Z,24.20
2018-06-13T23:32:40.381Z,24.20
2018-06-13T23:35:10.515Z,24.20
2018-06-13T23:37:40.420Z,24.10
2018-06-13T23:40:10.557Z,24.10
2018-06-13T23:42:40.464Z,24.10
2018-06-13T23:45:10.133Z,24.10
2018-06-13T23:47:39.840Z,24.10
2018-06-13T23:50:09.600Z,24.10
2018-06-13T23:52:39.353Z,24.10
2018-06-13T23:55:08.993Z,24.10
2018-06-13T23:57:38.781Z,24.10
